sensor_id;sensor_type;location;lat;lon;timestamp;P1;durP1;ratioP1;P2;durP2;ratioP2
66429;SDS011;53242;51.694;10.006;2022-08-18T00:01:05;11.43;;;5.43;;
66429;SDS011;53242;51.694;10.006;2022-08-18T00:03:29;8.48;;;4.72;;
66429;SDS011;53242;51.694;10.006;2022-08-18T00:05:52;11.35;;;4.88;;
66429;SDS011;53242;51.694;10.006;2022-08-18T00:08:14;9.93;;;5.13;;
66429;SDS011;53242;51.694;10.006;2022-08-18T00:10:39;12.38;;;6.18;;
66429;SDS011;53242;51.694;10.006;2022-08-18T00:13:02;14.38;;;6.68;;
66429;SDS011;53242;51.694;10.006;2022-08-18T00:15:24;14.30;;;7.90;;
66429;SDS011;53242;51.694;10.006;2022-08-18T00:17:47;11.10;;;6.93;;
66429;SDS011;53242;51.694;10.006;2022-08-18T00:20:16;13.50;;;6.78;;
66429;SDS011;53242;51.694;10.006;2022-08-18T00:22:41;13.77;;;7.35;;
66429;SDS011;53242;51.694;10.006;2022-08-18T00:25:05;12.20;;;7.07;;
66429;SDS011;53242;51.694;10.006;2022-08-18T00:27:30;15.18;;;7.90;;
66429;SDS011;53242;51.694;10.006;2022-08-18T00:29:53;17.10;;;9.23;;
66429;SDS011;53242;51.694;10.006;2022-08-18T00:34:47;15.48;;;8.23;;
66429;SDS011;53242;51.694;10.006;2022-08-18T00:37:10;17.52;;;8.20;;
66429;SDS011;53242;51.694;10.006;2022-08-18T00:39:32;14.73;;;7.75;;
66429;SDS011;53242;51.694;10.006;2022-08-18T00:41:55;15.55;;;7.70;;
66429;SDS011;53242;51.694;10.006;2022-08-18T00:44:18;15.07;;;6.93;;
66429;SDS011;53242;51.694;10.006;2022-08-18T00:46:40;11.23;;;6.65;;
66429;SDS011;53242;51.694;10.006;2022-08-18T00:49:03;13.93;;;6.55;;
66429;SDS011;53242;51.694;10.006;2022-08-18T00:51:43;13.30;;;6.82;;
66429;SDS011;53242;51.694;10.006;2022-08-18T00:56:48;15.48;;;8.07;;
66429;SDS011;53242;51.694;10.006;2022-08-18T00:59:20;16.95;;;8.38;;
66429;SDS011;53242;51.694;10.006;2022-08-18T01:01:54;18.65;;;10.18;;
66429;SDS011;53242;51.694;10.006;2022-08-18T01:04:24;20.60;;;11.02;;
66429;SDS011;53242;51.694;10.006;2022-08-18T01:06:57;22.73;;;11.63;;
66429;SDS011;53242;51.694;10.006;2022-08-18T01:09:22;21.98;;;11.48;;
66429;SDS011;53242;51.694;10.006;2022-08-18T01:11:45;22.02;;;10.40;;
66429;SDS011;53242;51.694;10.006;2022-08-18T01:14:07;16.60;;;8.60;;
66429;SDS011;53242;51.694;10.006;2022-08-18T01:16:31;16.50;;;8.10;;
66429;SDS011;53242;51.694;10.006;2022-08-18T01:19:12;15.70;;;8.27;;
66429;SDS011;53242;51.694;10.006;2022-08-18T01:21:56;17.98;;;8.60;;
66429;SDS011;53242;51.694;10.006;2022-08-18T01:24:26;13.80;;;7.57;;
66429;SDS011;53242;51.694;10.006;2022-08-18T01:27:10;12.88;;;6.82;;
66429;SDS011;53242;51.694;10.006;2022-08-18T01:29:38;15.02;;;7.95;;
66429;SDS011;53242;51.694;10.006;2022-08-18T01:32:01;13.18;;;7.40;;
66429;SDS011;53242;51.694;10.006;2022-08-18T01:34:24;14.63;;;7.10;;
66429;SDS011;53242;51.694;10.006;2022-08-18T01:36:49;12.95;;;6.90;;
66429;SDS011;53242;51.694;10.006;2022-08-18T01:39:16;13.35;;;7.28;;
66429;SDS011;53242;51.694;10.006;2022-08-18T01:41:39;12.82;;;7.20;;
66429;SDS011;53242;51.694;10.006;2022-08-18T01:44:02;16.58;;;8.20;;
66429;SDS011;53242;51.694;10.006;2022-08-18T01:46:27;13.95;;;7.63;;
66429;SDS011;53242;51.694;10.006;2022-08-18T01:48:51;15.88;;;7.93;;
66429;SDS011;53242;51.694;10.006;2022-08-18T01:51:15;15.95;;;7.53;;
66429;SDS011;53242;51.694;10.006;2022-08-18T01:53:40;15.95;;;8.00;;
66429;SDS011;53242;51.694;10.006;2022-08-18T01:56:03;13.93;;;7.55;;
66429;SDS011;53242;51.694;10.006;2022-08-18T01:58:26;13.77;;;7.18;;
66429;SDS011;53242;51.694;10.006;2022-08-18T02:00:49;15.68;;;7.90;;
66429;SDS011;53242;51.694;10.006;2022-08-18T02:03:11;16.88;;;9.07;;
66429;SDS011;53242;51.694;10.006;2022-08-18T02:05:38;18.50;;;9.73;;
66429;SDS011;53242;51.694;10.006;2022-08-18T02:08:04;20.70;;;11.18;;
66429;SDS011;53242;51.694;10.006;2022-08-18T02:10:27;20.35;;;10.90;;
66429;SDS011;53242;51.694;10.006;2022-08-18T02:12:50;19.77;;;10.75;;
66429;SDS011;53242;51.694;10.006;2022-08-18T02:15:12;20.15;;;11.10;;
66429;SDS011;53242;51.694;10.006;2022-08-18T02:17:36;18.13;;;10.02;;
66429;SDS011;53242;51.694;10.006;2022-08-18T02:20:00;18.02;;;9.77;;
66429;SDS011;53242;51.694;10.006;2022-08-18T02:22:22;19.20;;;10.20;;
66429;SDS011;53242;51.694;10.006;2022-08-18T02:24:45;16.15;;;9.52;;
66429;SDS011;53242;51.694;10.006;2022-08-18T02:27:08;20.77;;;10.13;;
66429;SDS011;53242;51.694;10.006;2022-08-18T02:29:32;19.08;;;10.50;;
66429;SDS011;53242;51.694;10.006;2022-08-18T02:31:54;19.52;;;11.18;;
66429;SDS011;53242;51.694;10.006;2022-08-18T02:34:17;19.13;;;10.30;;
66429;SDS011;53242;51.694;10.006;2022-08-18T02:36:39;21.73;;;10.70;;
66429;SDS011;53242;51.694;10.006;2022-08-18T02:39:02;21.05;;;11.77;;
66429;SDS011;53242;51.694;10.006;2022-08-18T02:41:25;23.80;;;12.30;;
66429;SDS011;53242;51.694;10.006;2022-08-18T02:43:49;22.65;;;11.95;;
66429;SDS011;53242;51.694;10.006;2022-08-18T02:46:11;15.70;;;7.90;;
66429;SDS011;53242;51.694;10.006;2022-08-18T02:48:34;16.13;;;8.38;;
66429;SDS011;53242;51.694;10.006;2022-08-18T02:51:00;16.80;;;7.80;;
66429;SDS011;53242;51.694;10.006;2022-08-18T02:53:24;13.40;;;6.88;;
66429;SDS011;53242;51.694;10.006;2022-08-18T02:55:48;12.48;;;6.82;;
66429;SDS011;53242;51.694;10.006;2022-08-18T02:58:11;12.85;;;6.75;;
66429;SDS011;53242;51.694;10.006;2022-08-18T03:00:34;14.18;;;6.50;;
66429;SDS011;53242;51.694;10.006;2022-08-18T03:02:56;14.40;;;6.75;;
66429;SDS011;53242;51.694;10.006;2022-08-18T03:05:19;14.00;;;6.50;;
66429;SDS011;53242;51.694;10.006;2022-08-18T03:07:41;15.75;;;7.00;;
66429;SDS011;53242;51.694;10.006;2022-08-18T03:10:04;13.10;;;7.18;;
66429;SDS011;53242;51.694;10.006;2022-08-18T03:12:28;13.10;;;7.28;;
66429;SDS011;53242;51.694;10.006;2022-08-18T03:14:50;13.35;;;7.65;;
66429;SDS011;53242;51.694;10.006;2022-08-18T03:17:12;13.88;;;7.28;;
66429;SDS011;53242;51.694;10.006;2022-08-18T03:19:36;15.15;;;7.78;;
66429;SDS011;53242;51.694;10.006;2022-08-18T03:21:59;16.77;;;8.98;;
66429;SDS011;53242;51.694;10.006;2022-08-18T03:24:21;17.88;;;9.48;;
66429;SDS011;53242;51.694;10.006;2022-08-18T03:26:44;19.60;;;10.23;;
66429;SDS011;53242;51.694;10.006;2022-08-18T03:29:06;22.05;;;11.20;;
66429;SDS011;53242;51.694;10.006;2022-08-18T03:31:30;23.80;;;12.70;;
66429;SDS011;53242;51.694;10.006;2022-08-18T03:33:52;21.45;;;11.82;;
66429;SDS011;53242;51.694;10.006;2022-08-18T03:36:17;22.70;;;11.30;;
66429;SDS011;53242;51.694;10.006;2022-08-18T03:38:42;19.50;;;10.73;;
66429;SDS011;53242;51.694;10.006;2022-08-18T03:41:06;18.42;;;10.13;;
66429;SDS011;53242;51.694;10.006;2022-08-18T03:43:29;16.00;;;9.18;;
66429;SDS011;53242;51.694;10.006;2022-08-18T03:45:53;16.92;;;8.68;;
66429;SDS011;53242;51.694;10.006;2022-08-18T03:48:15;15.82;;;8.68;;
66429;SDS011;53242;51.694;10.006;2022-08-18T03:50:38;16.65;;;9.50;;
66429;SDS011;53242;51.694;10.006;2022-08-18T03:53:00;18.60;;;9.30;;
66429;SDS011;53242;51.694;10.006;2022-08-18T03:55:22;19.45;;;10.25;;
66429;SDS011;53242;51.694;10.006;2022-08-18T03:57:45;18.15;;;10.20;;
66429;SDS011;53242;51.694;10.006;2022-08-18T04:00:08;19.48;;;9.82;;
66429;SDS011;53242;51.694;10.006;2022-08-18T04:02:32;18.55;;;9.93;;
66429;SDS011;53242;51.694;10.006;2022-08-18T04:04:55;20.52;;;11.20;;
66429;SDS011;53242;51.694;10.006;2022-08-18T04:07:17;22.27;;;11.02;;
66429;SDS011;53242;51.694;10.006;2022-08-18T04:09:40;20.77;;;11.18;;
66429;SDS011;53242;51.694;10.006;2022-08-18T04:12:05;22.75;;;11.60;;
66429;SDS011;53242;51.694;10.006;2022-08-18T04:14:34;25.48;;;13.45;;
66429;SDS011;53242;51.694;10.006;2022-08-18T04:16:58;23.13;;;11.82;;
66429;SDS011;53242;51.694;10.006;2022-08-18T04:19:20;22.60;;;11.82;;
66429;SDS011;53242;51.694;10.006;2022-08-18T04:21:43;22.65;;;11.73;;
66429;SDS011;53242;51.694;10.006;2022-08-18T04:24:07;22.60;;;11.80;;
66429;SDS011;53242;51.694;10.006;2022-08-18T04:26:31;19.42;;;9.82;;
66429;SDS011;53242;51.694;10.006;2022-08-18T04:28:58;18.98;;;9.95;;
66429;SDS011;53242;51.694;10.006;2022-08-18T04:31:24;17.33;;;8.95;;
66429;SDS011;53242;51.694;10.006;2022-08-18T04:33:47;19.10;;;9.88;;
66429;SDS011;53242;51.694;10.006;2022-08-18T04:36:11;19.92;;;9.48;;
66429;SDS011;53242;51.694;10.006;2022-08-18T04:38:35;19.02;;;10.00;;
66429;SDS011;53242;51.694;10.006;2022-08-18T04:40:58;18.40;;;9.68;;
66429;SDS011;53242;51.694;10.006;2022-08-18T04:43:21;17.95;;;9.48;;
66429;SDS011;53242;51.694;10.006;2022-08-18T04:45:43;19.23;;;10.55;;
66429;SDS011;53242;51.694;10.006;2022-08-18T04:48:07;19.25;;;10.00;;
66429;SDS011;53242;51.694;10.006;2022-08-18T04:50:29;21.40;;;10.38;;
66429;SDS011;53242;51.694;10.006;2022-08-18T04:52:52;20.60;;;9.98;;
66429;SDS011;53242;51.694;10.006;2022-08-18T04:55:33;19.65;;;10.45;;
66429;SDS011;53242;51.694;10.006;2022-08-18T04:57:55;21.20;;;10.65;;
66429;SDS011;53242;51.694;10.006;2022-08-18T05:00:20;25.48;;;12.70;;
66429;SDS011;53242;51.694;10.006;2022-08-18T05:02:42;33.83;;;14.73;;
66429;SDS011;53242;51.694;10.006;2022-08-18T05:05:05;28.70;;;15.20;;
66429;SDS011;53242;51.694;10.006;2022-08-18T05:07:28;35.10;;;16.55;;
66429;SDS011;53242;51.694;10.006;2022-08-18T05:09:51;32.22;;;16.35;;
66429;SDS011;53242;51.694;10.006;2022-08-18T05:12:16;32.38;;;15.90;;
66429;SDS011;53242;51.694;10.006;2022-08-18T05:14:39;32.13;;;17.63;;
66429;SDS011;53242;51.694;10.006;2022-08-18T05:19:25;30.45;;;15.43;;
66429;SDS011;53242;51.694;10.006;2022-08-18T05:21:48;30.98;;;15.73;;
66429;SDS011;53242;51.694;10.006;2022-08-18T05:24:11;30.83;;;16.73;;
66429;SDS011;53242;51.694;10.006;2022-08-18T05:26:34;30.08;;;15.68;;
66429;SDS011;53242;51.694;10.006;2022-08-18T05:28:57;30.60;;;15.05;;
66429;SDS011;53242;51.694;10.006;2022-08-18T05:31:21;33.17;;;16.98;;
66429;SDS011;53242;51.694;10.006;2022-08-18T05:33:45;30.13;;;15.18;;
66429;SDS011;53242;51.694;10.006;2022-08-18T05:36:12;28.35;;;14.98;;
66429;SDS011;53242;51.694;10.006;2022-08-18T05:39:03;30.95;;;14.88;;
66429;SDS011;53242;51.694;10.006;2022-08-18T05:41:40;31.60;;;15.55;;
66429;SDS011;53242;51.694;10.006;2022-08-18T05:44:06;28.92;;;14.77;;
66429;SDS011;53242;51.694;10.006;2022-08-18T05:46:50;26.00;;;13.63;;
66429;SDS011;53242;51.694;10.006;2022-08-18T05:49:16;29.13;;;13.93;;
66429;SDS011;53242;51.694;10.006;2022-08-18T05:51:51;29.98;;;14.02;;
66429;SDS011;53242;51.694;10.006;2022-08-18T05:54:22;30.02;;;14.60;;
66429;SDS011;53242;51.694;10.006;2022-08-18T05:57:08;26.65;;;14.20;;
66429;SDS011;53242;51.694;10.006;2022-08-18T05:59:40;24.15;;;13.15;;
66429;SDS011;53242;51.694;10.006;2022-08-18T06:07:04;26.67;;;13.43;;
66429;SDS011;53242;51.694;10.006;2022-08-18T06:09:32;28.27;;;14.38;;
66429;SDS011;53242;51.694;10.006;2022-08-18T06:12:47;28.50;;;14.52;;
66429;SDS011;53242;51.694;10.006;2022-08-18T06:14:43;26.60;;;13.68;;
66429;SDS011;53242;51.694;10.006;2022-08-18T06:17:09;27.95;;;13.77;;
66429;SDS011;53242;51.694;10.006;2022-08-18T06:22:37;32.35;;;16.45;;
66429;SDS011;53242;51.694;10.006;2022-08-18T06:25:13;33.22;;;15.98;;
66429;SDS011;53242;51.694;10.006;2022-08-18T06:28:05;33.55;;;17.35;;
66429;SDS011;53242;51.694;10.006;2022-08-18T06:31:05;30.90;;;16.02;;
66429;SDS011;53242;51.694;10.006;2022-08-18T06:36:23;37.05;;;19.77;;
66429;SDS011;53242;51.694;10.006;2022-08-18T06:38:51;37.65;;;18.10;;
66429;SDS011;53242;51.694;10.006;2022-08-18T06:44:04;37.58;;;19.02;;
66429;SDS011;53242;51.694;10.006;2022-08-18T06:46:51;37.53;;;19.85;;
66429;SDS011;53242;51.694;10.006;2022-08-18T06:49:23;33.92;;;17.35;;
66429;SDS011;53242;51.694;10.006;2022-08-18T06:51:57;38.28;;;18.67;;
66429;SDS011;53242;51.694;10.006;2022-08-18T07:01:37;34.97;;;18.55;;
66429;SDS011;53242;51.694;10.006;2022-08-18T07:03:59;38.85;;;20.15;;
66429;SDS011;53242;51.694;10.006;2022-08-18T07:06:24;39.40;;;20.15;;
66429;SDS011;53242;51.694;10.006;2022-08-18T07:08:51;43.00;;;20.45;;
66429;SDS011;53242;51.694;10.006;2022-08-18T07:13:44;45.78;;;21.13;;
66429;SDS011;53242;51.694;10.006;2022-08-18T07:18:45;41.63;;;19.98;;
66429;SDS011;53242;51.694;10.006;2022-08-18T07:21:08;43.83;;;21.05;;
66429;SDS011;53242;51.694;10.006;2022-08-18T07:23:44;43.88;;;21.70;;
66429;SDS011;53242;51.694;10.006;2022-08-18T07:26:20;44.70;;;22.13;;
66429;SDS011;53242;51.694;10.006;2022-08-18T07:28:44;51.45;;;23.52;;
66429;SDS011;53242;51.694;10.006;2022-08-18T07:34:09;55.17;;;24.15;;
66429;SDS011;53242;51.694;10.006;2022-08-18T07:36:53;57.03;;;26.48;;
66429;SDS011;53242;51.694;10.006;2022-08-18T07:39:27;53.03;;;26.92;;
66429;SDS011;53242;51.694;10.006;2022-08-18T07:41:55;53.47;;;24.50;;
66429;SDS011;53242;51.694;10.006;2022-08-18T07:44:28;52.85;;;25.23;;
66429;SDS011;53242;51.694;10.006;2022-08-18T07:47:06;52.78;;;23.20;;
66429;SDS011;53242;51.694;10.006;2022-08-18T07:49:38;55.22;;;25.05;;
66429;SDS011;53242;51.694;10.006;2022-08-18T07:52:06;54.90;;;24.88;;
66429;SDS011;53242;51.694;10.006;2022-08-18T07:57:38;55.40;;;25.67;;
66429;SDS011;53242;51.694;10.006;2022-08-18T08:08:06;50.42;;;23.40;;
66429;SDS011;53242;51.694;10.006;2022-08-18T08:10:43;51.55;;;23.83;;
66429;SDS011;53242;51.694;10.006;2022-08-18T08:13:38;53.58;;;24.92;;
66429;SDS011;53242;51.694;10.006;2022-08-18T08:19:20;56.20;;;25.83;;
66429;SDS011;53242;51.694;10.006;2022-08-18T08:22:04;52.38;;;23.98;;
66429;SDS011;53242;51.694;10.006;2022-08-18T08:30:29;59.60;;;26.48;;
66429;SDS011;53242;51.694;10.006;2022-08-18T08:33:11;60.58;;;26.45;;
66429;SDS011;53242;51.694;10.006;2022-08-18T08:35:44;58.75;;;26.15;;
66429;SDS011;53242;51.694;10.006;2022-08-18T08:38:25;56.13;;;26.55;;
66429;SDS011;53242;51.694;10.006;2022-08-18T08:41:04;58.40;;;26.33;;
66429;SDS011;53242;51.694;10.006;2022-08-18T08:43:33;60.42;;;26.90;;
66429;SDS011;53242;51.694;10.006;2022-08-18T08:46:09;62.58;;;28.23;;
66429;SDS011;53242;51.694;10.006;2022-08-18T08:49:22;60.75;;;27.27;;
66429;SDS011;53242;51.694;10.006;2022-08-18T08:51:43;60.30;;;27.17;;
66429;SDS011;53242;51.694;10.006;2022-08-18T08:59:09;58.30;;;26.63;;
66429;SDS011;53242;51.694;10.006;2022-08-18T09:01:40;50.28;;;24.10;;
66429;SDS011;53242;51.694;10.006;2022-08-18T09:07:13;52.75;;;25.52;;
66429;SDS011;53242;51.694;10.006;2022-08-18T09:16:07;47.50;;;22.92;;
66429;SDS011;53242;51.694;10.006;2022-08-18T09:18:47;47.67;;;22.20;;
66429;SDS011;53242;51.694;10.006;2022-08-18T09:24:24;45.17;;;21.38;;
66429;SDS011;53242;51.694;10.006;2022-08-18T09:29:26;42.38;;;19.67;;
66429;SDS011;53242;51.694;10.006;2022-08-18T09:37:47;38.60;;;19.15;;
66429;SDS011;53242;51.694;10.006;2022-08-18T09:40:33;37.70;;;18.77;;
66429;SDS011;53242;51.694;10.006;2022-08-18T09:46:13;38.92;;;19.60;;
66429;SDS011;53242;51.694;10.006;2022-08-18T09:49:51;38.58;;;18.92;;
66429;SDS011;53242;51.694;10.006;2022-08-18T09:51:48;36.33;;;18.25;;
66429;SDS011;53242;51.694;10.006;2022-08-18T09:54:22;36.28;;;18.65;;
66429;SDS011;53242;51.694;10.006;2022-08-18T09:59:11;36.70;;;18.33;;
66429;SDS011;53242;51.694;10.006;2022-08-18T10:01:35;35.65;;;19.25;;
66429;SDS011;53242;51.694;10.006;2022-08-18T10:04:46;37.35;;;18.67;;
66429;SDS011;53242;51.694;10.006;2022-08-18T10:06:52;35.90;;;17.58;;
66429;SDS011;53242;51.694;10.006;2022-08-18T10:20:38;35.80;;;17.60;;
66429;SDS011;53242;51.694;10.006;2022-08-18T10:26:06;39.42;;;19.05;;
66429;SDS011;53242;51.694;10.006;2022-08-18T10:29:02;37.42;;;17.73;;
66429;SDS011;53242;51.694;10.006;2022-08-18T10:31:27;40.45;;;19.20;;
66429;SDS011;53242;51.694;10.006;2022-08-18T10:34:02;37.53;;;18.00;;
66429;SDS011;53242;51.694;10.006;2022-08-18T10:36:47;38.30;;;18.10;;
66429;SDS011;53242;51.694;10.006;2022-08-18T10:39:17;42.35;;;19.77;;
66429;SDS011;53242;51.694;10.006;2022-08-18T10:42:03;38.85;;;19.30;;
66429;SDS011;53242;51.694;10.006;2022-08-18T10:44:26;41.35;;;19.48;;
66429;SDS011;53242;51.694;10.006;2022-08-18T10:46:51;39.10;;;18.98;;
66429;SDS011;53242;51.694;10.006;2022-08-18T10:49:16;40.90;;;19.20;;
66429;SDS011;53242;51.694;10.006;2022-08-18T10:57:13;40.83;;;20.67;;
66429;SDS011;53242;51.694;10.006;2022-08-18T11:02:44;46.42;;;21.85;;
66429;SDS011;53242;51.694;10.006;2022-08-18T11:05:13;46.25;;;22.10;;
66429;SDS011;53242;51.694;10.006;2022-08-18T11:07:41;46.15;;;21.92;;
66429;SDS011;53242;51.694;10.006;2022-08-18T11:10:16;41.00;;;20.80;;
66429;SDS011;53242;51.694;10.006;2022-08-18T11:15:41;48.40;;;22.20;;
66429;SDS011;53242;51.694;10.006;2022-08-18T11:24:02;47.15;;;21.08;;
66429;SDS011;53242;51.694;10.006;2022-08-18T11:26:30;45.97;;;22.38;;
66429;SDS011;53242;51.694;10.006;2022-08-18T11:28:56;43.88;;;22.58;;
66429;SDS011;53242;51.694;10.006;2022-08-18T11:31:18;55.85;;;24.33;;
66429;SDS011;53242;51.694;10.006;2022-08-18T11:33:41;51.78;;;23.92;;
66429;SDS011;53242;51.694;10.006;2022-08-18T11:36:03;50.53;;;24.60;;
66429;SDS011;53242;51.694;10.006;2022-08-18T11:38:26;48.65;;;23.67;;
66429;SDS011;53242;51.694;10.006;2022-08-18T11:40:50;48.47;;;24.08;;
66429;SDS011;53242;51.694;10.006;2022-08-18T11:43:25;50.55;;;24.27;;
66429;SDS011;53242;51.694;10.006;2022-08-18T11:45:53;50.92;;;24.88;;
66429;SDS011;53242;51.694;10.006;2022-08-18T11:51:15;49.17;;;26.05;;
66429;SDS011;53242;51.694;10.006;2022-08-18T11:53:50;51.83;;;24.38;;
66429;SDS011;53242;51.694;10.006;2022-08-18T11:56:27;54.90;;;26.27;;
66429;SDS011;53242;51.694;10.006;2022-08-18T11:58:57;50.83;;;25.85;;
66429;SDS011;53242;51.694;10.006;2022-08-18T12:03:54;56.72;;;26.40;;
66429;SDS011;53242;51.694;10.006;2022-08-18T12:06:19;53.70;;;25.42;;
66429;SDS011;53242;51.694;10.006;2022-08-18T12:08:52;55.17;;;25.88;;
66429;SDS011;53242;51.694;10.006;2022-08-18T12:11:22;52.55;;;24.00;;
66429;SDS011;53242;51.694;10.006;2022-08-18T12:13:48;53.33;;;26.63;;
66429;SDS011;53242;51.694;10.006;2022-08-18T12:19:02;53.60;;;25.17;;
66429;SDS011;53242;51.694;10.006;2022-08-18T12:21:26;56.60;;;26.88;;
66429;SDS011;53242;51.694;10.006;2022-08-18T12:23:49;54.90;;;25.73;;
66429;SDS011;53242;51.694;10.006;2022-08-18T12:26:12;56.72;;;25.70;;
66429;SDS011;53242;51.694;10.006;2022-08-18T12:28:34;54.40;;;25.35;;
66429;SDS011;53242;51.694;10.006;2022-08-18T12:30:57;55.10;;;25.20;;
66429;SDS011;53242;51.694;10.006;2022-08-18T12:33:19;55.08;;;25.02;;
66429;SDS011;53242;51.694;10.006;2022-08-18T12:35:42;52.60;;;24.65;;
66429;SDS011;53242;51.694;10.006;2022-08-18T12:38:05;55.08;;;26.08;;
66429;SDS011;53242;51.694;10.006;2022-08-18T12:40:28;54.22;;;25.42;;
66429;SDS011;53242;51.694;10.006;2022-08-18T12:42:50;56.38;;;25.83;;
66429;SDS011;53242;51.694;10.006;2022-08-18T12:45:13;51.33;;;23.52;;
66429;SDS011;53242;51.694;10.006;2022-08-18T12:47:36;49.38;;;24.63;;
66429;SDS011;53242;51.694;10.006;2022-08-18T12:50:01;55.00;;;25.88;;
66429;SDS011;53242;51.694;10.006;2022-08-18T12:52:23;53.15;;;25.38;;
66429;SDS011;53242;51.694;10.006;2022-08-18T12:54:46;53.55;;;24.27;;
66429;SDS011;53242;51.694;10.006;2022-08-18T12:57:10;49.47;;;23.58;;
66429;SDS011;53242;51.694;10.006;2022-08-18T12:59:40;49.53;;;24.65;;
66429;SDS011;53242;51.694;10.006;2022-08-18T13:02:03;53.17;;;25.63;;
66429;SDS011;53242;51.694;10.006;2022-08-18T13:04:28;52.80;;;26.02;;
66429;SDS011;53242;51.694;10.006;2022-08-18T13:06:51;51.92;;;25.75;;
66429;SDS011;53242;51.694;10.006;2022-08-18T13:09:16;52.55;;;25.23;;
66429;SDS011;53242;51.694;10.006;2022-08-18T13:11:39;49.67;;;24.80;;
66429;SDS011;53242;51.694;10.006;2022-08-18T13:14:02;49.60;;;25.27;;
66429;SDS011;53242;51.694;10.006;2022-08-18T13:16:25;54.58;;;25.60;;
66429;SDS011;53242;51.694;10.006;2022-08-18T13:18:49;53.08;;;25.75;;
66429;SDS011;53242;51.694;10.006;2022-08-18T13:21:12;53.25;;;24.58;;
66429;SDS011;53242;51.694;10.006;2022-08-18T13:23:36;51.72;;;24.65;;
66429;SDS011;53242;51.694;10.006;2022-08-18T13:25:59;49.10;;;24.48;;
66429;SDS011;53242;51.694;10.006;2022-08-18T13:28:23;53.20;;;24.80;;
66429;SDS011;53242;51.694;10.006;2022-08-18T13:30:45;50.28;;;24.10;;
66429;SDS011;53242;51.694;10.006;2022-08-18T13:33:08;49.88;;;24.27;;
66429;SDS011;53242;51.694;10.006;2022-08-18T13:35:30;53.03;;;25.27;;
66429;SDS011;53242;51.694;10.006;2022-08-18T13:37:53;48.97;;;24.13;;
66429;SDS011;53242;51.694;10.006;2022-08-18T13:40:17;52.33;;;25.10;;
66429;SDS011;53242;51.694;10.006;2022-08-18T13:42:49;51.55;;;24.80;;
66429;SDS011;53242;51.694;10.006;2022-08-18T13:45:12;53.25;;;23.73;;
66429;SDS011;53242;51.694;10.006;2022-08-18T13:47:36;50.10;;;24.92;;
66429;SDS011;53242;51.694;10.006;2022-08-18T13:49:59;54.95;;;27.10;;
66429;SDS011;53242;51.694;10.006;2022-08-18T13:52:21;51.67;;;25.35;;
66429;SDS011;53242;51.694;10.006;2022-08-18T13:54:44;47.53;;;23.10;;
66429;SDS011;53242;51.694;10.006;2022-08-18T13:57:07;52.58;;;24.77;;
66429;SDS011;53242;51.694;10.006;2022-08-18T13:59:29;49.70;;;23.50;;
66429;SDS011;53242;51.694;10.006;2022-08-18T14:01:54;51.40;;;24.27;;
66429;SDS011;53242;51.694;10.006;2022-08-18T14:04:16;49.53;;;24.75;;
66429;SDS011;53242;51.694;10.006;2022-08-18T14:06:40;51.00;;;23.35;;
66429;SDS011;53242;51.694;10.006;2022-08-18T14:09:10;47.55;;;24.23;;
66429;SDS011;53242;51.694;10.006;2022-08-18T14:11:34;50.58;;;24.88;;
66429;SDS011;53242;51.694;10.006;2022-08-18T14:13:58;51.92;;;24.77;;
66429;SDS011;53242;51.694;10.006;2022-08-18T14:16:22;49.75;;;23.45;;
66429;SDS011;53242;51.694;10.006;2022-08-18T14:18:46;48.47;;;24.00;;
66429;SDS011;53242;51.694;10.006;2022-08-18T14:21:29;48.90;;;23.17;;
66429;SDS011;53242;51.694;10.006;2022-08-18T14:24:10;46.75;;;23.08;;
66429;SDS011;53242;51.694;10.006;2022-08-18T14:26:51;47.78;;;22.45;;
66429;SDS011;53242;51.694;10.006;2022-08-18T14:29:14;51.85;;;24.45;;
66429;SDS011;53242;51.694;10.006;2022-08-18T14:31:37;48.33;;;23.20;;
66429;SDS011;53242;51.694;10.006;2022-08-18T14:33:59;49.90;;;22.75;;
66429;SDS011;53242;51.694;10.006;2022-08-18T14:36:22;44.22;;;21.35;;
66429;SDS011;53242;51.694;10.006;2022-08-18T14:41:09;47.75;;;22.50;;
66429;SDS011;53242;51.694;10.006;2022-08-18T14:43:33;51.88;;;23.20;;
66429;SDS011;53242;51.694;10.006;2022-08-18T14:45:56;50.40;;;24.20;;
66429;SDS011;53242;51.694;10.006;2022-08-18T14:48:19;46.30;;;22.35;;
66429;SDS011;53242;51.694;10.006;2022-08-18T14:50:45;49.78;;;23.25;;
66429;SDS011;53242;51.694;10.006;2022-08-18T14:53:11;46.17;;;22.50;;
66429;SDS011;53242;51.694;10.006;2022-08-18T14:55:35;52.22;;;23.90;;
66429;SDS011;53242;51.694;10.006;2022-08-18T14:57:58;49.80;;;23.25;;
66429;SDS011;53242;51.694;10.006;2022-08-18T15:00:21;50.55;;;24.00;;
66429;SDS011;53242;51.694;10.006;2022-08-18T15:02:45;49.72;;;22.73;;
66429;SDS011;53242;51.694;10.006;2022-08-18T15:05:10;51.13;;;24.42;;
66429;SDS011;53242;51.694;10.006;2022-08-18T15:07:34;50.03;;;24.05;;
66429;SDS011;53242;51.694;10.006;2022-08-18T15:10:00;50.03;;;24.80;;
66429;SDS011;53242;51.694;10.006;2022-08-18T15:12:23;52.47;;;24.52;;
66429;SDS011;53242;51.694;10.006;2022-08-18T15:14:46;47.45;;;22.05;;
66429;SDS011;53242;51.694;10.006;2022-08-18T15:17:09;47.58;;;22.80;;
66429;SDS011;53242;51.694;10.006;2022-08-18T15:19:33;48.65;;;22.67;;
66429;SDS011;53242;51.694;10.006;2022-08-18T15:21:55;49.95;;;23.58;;
66429;SDS011;53242;51.694;10.006;2022-08-18T15:24:40;47.33;;;22.65;;
66429;SDS011;53242;51.694;10.006;2022-08-18T15:27:21;48.70;;;22.90;;
66429;SDS011;53242;51.694;10.006;2022-08-18T15:29:44;47.95;;;22.50;;
66429;SDS011;53242;51.694;10.006;2022-08-18T15:32:07;47.65;;;22.58;;
66429;SDS011;53242;51.694;10.006;2022-08-18T15:34:29;49.13;;;23.30;;
66429;SDS011;53242;51.694;10.006;2022-08-18T15:36:52;56.05;;;24.70;;
66429;SDS011;53242;51.694;10.006;2022-08-18T15:39:16;51.15;;;24.23;;
66429;SDS011;53242;51.694;10.006;2022-08-18T15:41:40;54.28;;;24.50;;
66429;SDS011;53242;51.694;10.006;2022-08-18T15:44:06;52.95;;;24.25;;
66429;SDS011;53242;51.694;10.006;2022-08-18T15:46:34;55.58;;;25.05;;
66429;SDS011;53242;51.694;10.006;2022-08-18T15:48:58;46.95;;;22.90;;
66429;SDS011;53242;51.694;10.006;2022-08-18T15:51:20;48.13;;;22.60;;
66429;SDS011;53242;51.694;10.006;2022-08-18T15:53:43;50.70;;;23.75;;
66429;SDS011;53242;51.694;10.006;2022-08-18T15:56:10;51.45;;;23.23;;
66429;SDS011;53242;51.694;10.006;2022-08-18T15:58:35;48.35;;;22.23;;
66429;SDS011;53242;51.694;10.006;2022-08-18T16:00:57;44.83;;;21.45;;
66429;SDS011;53242;51.694;10.006;2022-08-18T16:03:20;48.17;;;21.92;;
66429;SDS011;53242;51.694;10.006;2022-08-18T16:05:47;44.85;;;20.83;;
66429;SDS011;53242;51.694;10.006;2022-08-18T16:08:15;46.47;;;22.02;;
66429;SDS011;53242;51.694;10.006;2022-08-18T16:10:39;44.20;;;20.80;;
66429;SDS011;53242;51.694;10.006;2022-08-18T16:13:02;42.30;;;20.38;;
66429;SDS011;53242;51.694;10.006;2022-08-18T16:15:26;45.53;;;22.05;;
66429;SDS011;53242;51.694;10.006;2022-08-18T16:17:49;46.67;;;22.15;;
66429;SDS011;53242;51.694;10.006;2022-08-18T16:20:12;43.47;;;20.73;;